Time;durP1;ratioP1;P1;durP2;ratioP2;P2;SDS_P1;SDS_P2;PMS_P1;PMS_P2;Temp;Humidity;BMP_temperature;BMP_pressure;BME280_temperature;BME280_humidity;BME280_pressure;Samples;Min_cycle;Max_cycle;Signal;HPM_P1;HPM_P2
2022/03/06 00:00:15;;;;;;;27.88;15.77;;;-0.40;99.90;;;;;;5097999;28;20055;-81
2022/03/06 00:02:40;;;;;;;26.33;14.93;;;-0.50;99.90;;;;;;5099185;28;20032;-81
2022/03/06 00:05:07;;;;;;;31.38;15.55;;;-0.50;99.90;;;;;;5115513;28;20027;-81
2022/03/06 00:07:33;;;;;;;28.33;15.50;;;-0.50;99.90;;;;;;5115546;28;20037;-81
2022/03/06 00:09:58;;;;;;;28.17;15.55;;;-0.50;99.90;;;;;;5115647;28;20031;-81
2022/03/06 00:12:24;;;;;;;28.00;15.88;;;-0.60;99.90;;;;;;5098275;28;20035;-81
2022/03/06 00:14:49;;;;;;;27.73;16.42;;;-0.60;99.90;;;;;;5116255;28;20047;-81
2022/03/06 00:17:18;;;;;;;29.17;16.40;;;-0.60;99.90;;;;;;5099076;28;20028;-81
2022/03/06 00:19:44;;;;;;;26.55;16.48;;;-0.60;99.90;;;;;;5115828;28;20035;-81
2022/03/06 00:22:09;;;;;;;28.35;16.45;;;-0.60;99.90;;;;;;5115009;28;20024;-81
2022/03/06 00:24:35;;;;;;;28.52;15.57;;;-0.50;99.90;;;;;;5115435;28;20357;-80
2022/03/06 00:27:01;;;;;;;28.17;16.00;;;-0.60;99.90;;;;;;5098298;28;20028;-80
2022/03/06 00:29:26;;;;;;;27.05;16.40;;;-0.60;99.90;;;;;;5098715;28;20432;-81
2022/03/06 00:31:52;;;;;;;26.50;16.33;;;-0.60;99.90;;;;;;5116692;28;20075;-81
2022/03/06 00:34:18;;;;;;;28.17;16.48;;;-0.60;99.90;;;;;;5114857;28;20447;-81
2022/03/06 00:36:43;;;;;;;25.25;16.25;;;-0.60;99.90;;;;;;5115990;28;20036;-81
2022/03/06 00:39:09;;;;;;;27.15;16.58;;;-0.60;99.90;;;;;;5114582;28;20028;-81
2022/03/06 00:41:36;;;;;;;27.17;17.27;;;-0.60;99.90;;;;;;5114302;28;20076;-81
2022/03/06 00:44:02;;;;;;;26.80;16.88;;;-0.50;99.90;;;;;;5116004;28;20019;-81
2022/03/06 00:46:27;;;;;;;27.88;16.38;;;-0.60;99.90;;;;;;5081676;28;20034;-81
2022/03/06 00:48:53;;;;;;;26.10;15.88;;;-0.60;99.90;;;;;;5080836;28;20456;-81
2022/03/06 00:51:18;;;;;;;30.08;16.90;;;-0.50;99.90;;;;;;5097584;28;20084;-81
2022/03/06 00:53:44;;;;;;;29.40;17.10;;;-0.60;99.90;;;;;;5081341;28;20063;-81
2022/03/06 00:56:10;;;;;;;27.20;16.45;;;-0.40;99.90;;;;;;5115688;28;20097;-81
2022/03/06 00:58:37;;;;;;;29.02;17.00;;;-0.50;99.90;;;;;;5114313;28;20047;-81
2022/03/06 01:01:04;;;;;;;28.73;16.95;;;-0.40;99.90;;;;;;5115743;28;20035;-81
2022/03/06 01:03:30;;;;;;;27.70;16.13;;;-0.30;99.90;;;;;;5098066;28;20025;-81
2022/03/06 01:05:56;;;;;;;29.75;17.20;;;-0.30;99.90;;;;;;5116039;28;20031;-81
2022/03/06 01:08:22;;;;;;;27.15;16.33;;;-0.30;99.90;;;;;;5114213;28;20085;-81
2022/03/06 01:10:49;;;;;;;28.40;17.00;;;-0.40;99.90;;;;;;5115545;28;20065;-81
2022/03/06 01:13:16;;;;;;;30.77;17.50;;;-0.30;99.90;;;;;;5114187;28;20081;-81
2022/03/06 01:15:42;;;;;;;28.02;16.17;;;-0.30;99.90;;;;;;5115545;28;20058;-81
2022/03/06 01:18:08;;;;;;;27.63;15.38;;;-0.30;99.90;;;;;;5114521;28;20051;-81
2022/03/06 01:20:38;;;;;;;28.33;16.15;;;-0.20;99.90;;;;;;5114850;28;20027;-81
2022/03/06 01:23:05;;;;;;;32.20;16.90;;;-0.20;99.90;;;;;;5096837;28;20072;-81
2022/03/06 01:25:32;;;;;;;27.33;15.85;;;-0.20;99.90;;;;;;5113914;28;20062;-81
2022/03/06 01:27:58;;;;;;;27.80;16.95;;;-0.10;99.90;;;;;;5096481;28;20023;-81
2022/03/06 01:30:25;;;;;;;31.52;15.35;;;-0.10;99.90;;;;;;5113711;28;20173;-81
2022/03/06 01:32:51;;;;;;;25.10;15.18;;;-0.10;99.90;;;;;;5114073;28;20476;-81
2022/03/06 01:35:18;;;;;;;25.08;15.80;;;-0.10;99.90;;;;;;5114470;28;20383;-82
2022/03/06 01:37:44;;;;;;;26.60;15.85;;;-0.10;99.90;;;;;;5113994;28;20177;-81
2022/03/06 01:40:11;;;;;;;26.85;16.15;;;-0.10;99.90;;;;;;5113688;28;20519;-81
2022/03/06 01:42:44;;;;;;;24.42;15.25;;;0.00;99.90;;;;;;5114512;28;20051;-81
2022/03/06 01:45:11;;;;;;;27.00;15.00;;;0.00;99.90;;;;;;5115329;28;20020;-80
2022/03/06 01:47:43;;;;;;;25.38;15.35;;;0.00;99.90;;;;;;5113674;28;20038;-81
2022/03/06 01:50:32;;;;;;;24.35;15.18;;;0.00;99.90;;;;;;5112906;28;20359;-80
2022/03/06 01:53:00;;;;;;;23.88;14.55;;;0.00;99.90;;;;;;5114854;28;20020;-80
2022/03/06 01:55:27;;;;;;;26.17;14.52;;;0.00;99.90;;;;;;5113236;28;20130;-80
2022/03/06 01:57:56;;;;;;;24.73;15.00;;;0.00;99.90;;;;;;5096408;28;20383;-80
2022/03/06 02:00:25;;;;;;;25.45;15.00;;;0.00;99.90;;;;;;5113226;28;20479;-80
2022/03/06 02:02:53;;;;;;;25.42;15.50;;;0.00;99.90;;;;;;5114530;28;20057;-80
2022/03/06 02:05:19;;;;;;;24.83;14.80;;;0.00;99.90;;;;;;5114991;28;20119;-80
2022/03/06 02:07:44;;;;;;;25.10;14.98;;;0.00;99.90;;;;;;5113462;28;20111;-80
2022/03/06 02:10:11;;;;;;;22.75;14.38;;;0.10;99.90;;;;;;5113044;28;20047;-80
2022/03/06 02:12:37;;;;;;;24.30;14.93;;;0.10;99.90;;;;;;5113034;28;20062;-80
2022/03/06 02:15:07;;;;;;;24.27;15.02;;;0.10;99.90;;;;;;5112940;28;20418;-80
2022/03/06 02:17:32;;;;;;;24.30;14.73;;;0.10;99.90;;;;;;5114556;28;20111;-80
2022/03/06 02:20:07;;;;;;;25.08;14.45;;;0.10;99.90;;;;;;5096313;28;20448;-80
2022/03/06 02:22:35;;;;;;;23.92;13.70;;;0.20;99.90;;;;;;5115305;28;20028;-80
2022/03/06 02:25:04;;;;;;;27.23;14.55;;;0.10;99.90;;;;;;5114456;28;20045;-80
2022/03/06 02:27:30;;;;;;;25.23;14.60;;;0.20;99.90;;;;;;5113896;28;20403;-80
2022/03/06 02:29:56;;;;;;;22.33;13.98;;;0.10;99.90;;;;;;5113847;28;20038;-81
2022/03/06 02:32:23;;;;;;;26.25;14.52;;;0.20;99.90;;;;;;5112753;28;20028;-81
2022/03/06 02:34:51;;;;;;;26.35;13.82;;;0.20;99.90;;;;;;5112886;28;20027;-81
2022/03/06 02:37:19;;;;;;;27.83;14.63;;;0.10;99.90;;;;;;5114797;28;20016;-81
2022/03/06 02:39:47;;;;;;;24.02;13.98;;;0.20;99.90;;;;;;5114958;28;20030;-80
2022/03/06 02:42:27;;;;;;;25.23;14.27;;;0.30;99.90;;;;;;5116008;28;20030;-80
2022/03/06 02:44:54;;;;;;;26.83;14.70;;;0.20;99.90;;;;;;5114817;28;20496;-80
2022/03/06 02:47:20;;;;;;;26.60;14.05;;;0.30;99.90;;;;;;5114803;28;20028;-80
2022/03/06 02:49:46;;;;;;;28.80;14.57;;;0.30;99.90;;;;;;5115924;28;20468;-80
2022/03/06 02:52:12;;;;;;;24.63;13.95;;;0.30;99.90;;;;;;5114448;28;20024;-80
2022/03/06 02:54:38;;;;;;;28.25;14.80;;;0.30;99.90;;;;;;5115286;28;20049;-80
2022/03/06 02:57:05;;;;;;;24.13;14.25;;;0.40;99.90;;;;;;5114936;28;20068;-80
2022/03/06 02:59:31;;;;;;;22.42;13.93;;;0.40;99.90;;;;;;5113310;28;20047;-80
2022/03/06 03:01:56;;;;;;;23.20;13.57;;;0.40;99.90;;;;;;5113782;28;20046;-79
2022/03/06 03:04:22;;;;;;;24.65;13.95;;;0.40;99.90;;;;;;5082290;28;20102;-80
2022/03/06 03:06:52;;;;;;;23.67;13.55;;;0.40;99.90;;;;;;5117947;28;20028;-80
2022/03/06 03:09:19;;;;;;;25.20;13.15;;;0.40;99.90;;;;;;5116946;28;20371;-80
2022/03/06 03:11:56;;;;;;;22.35;13.48;;;0.40;99.90;;;;;;5117309;28;20023;-79
2022/03/06 03:14:22;;;;;;;21.60;13.15;;;0.30;99.90;;;;;;5117863;27;20042;-79
2022/03/06 03:16:47;;;;;;;20.67;12.57;;;0.20;99.90;;;;;;5118157;28;20047;-79
2022/03/06 03:19:14;;;;;;;20.38;13.02;;;0.20;99.90;;;;;;5116604;28;20036;-80
2022/03/06 03:21:40;;;;;;;23.25;14.25;;;0.10;99.90;;;;;;5116047;28;20485;-80
2022/03/06 03:24:07;;;;;;;26.17;13.82;;;0.00;99.90;;;;;;5117618;28;20105;-80
2022/03/06 03:26:32;;;;;;;22.20;12.93;;;0.00;99.90;;;;;;5116219;28;20147;-79
2022/03/06 03:28:58;;;;;;;21.35;12.65;;;0.00;99.90;;;;;;5117689;28;20032;-80
2022/03/06 03:31:24;;;;;;;22.05;13.32;;;-0.10;99.90;;;;;;5116803;28;20497;-80
2022/03/06 03:33:49;;;;;;;19.80;12.52;;;-0.10;99.90;;;;;;5099102;28;20081;-80
2022/03/06 03:36:15;;;;;;;20.70;12.50;;;-0.20;99.90;;;;;;5115883;28;20047;-80
2022/03/06 03:38:41;;;;;;;20.88;12.10;;;-0.20;99.90;;;;;;5117316;28;20065;-80
2022/03/06 03:41:08;;;;;;;20.35;12.13;;;-0.30;99.90;;;;;;5099311;28;20024;-80
2022/03/06 03:43:34;;;;;;;23.85;13.20;;;-0.30;99.90;;;;;;5116981;28;20062;-80
2022/03/06 03:45:59;;;;;;;23.75;13.13;;;-0.40;99.90;;;;;;5117662;28;20436;-80
2022/03/06 03:48:26;;;;;;;19.17;12.55;;;-0.40;99.90;;;;;;5115884;28;20482;-80
2022/03/06 03:50:52;;;;;;;23.30;12.63;;;-0.50;99.90;;;;;;5115936;28;20422;-80
2022/03/06 03:53:18;;;;;;;21.33;13.20;;;-0.60;99.90;;;;;;5115811;28;20051;-80
2022/03/06 03:55:44;;;;;;;21.15;12.75;;;-0.50;99.90;;;;;;5117149;28;20486;-80
2022/03/06 03:58:09;;;;;;;19.17;12.07;;;-0.60;99.90;;;;;;5116423;28;20024;-80
2022/03/06 04:00:35;;;;;;;20.42;12.80;;;-0.70;99.90;;;;;;5115670;28;20443;-80
2022/03/06 04:03:01;;;;;;;23.15;12.40;;;-0.70;99.90;;;;;;5116843;28;20026;-80
2022/03/06 04:05:26;;;;;;;21.90;12.80;;;-0.70;99.90;;;;;;5098568;28;20039;-80
2022/03/06 04:07:53;;;;;;;18.63;12.38;;;-0.70;99.90;;;;;;5115806;28;20031;-80
2022/03/06 04:10:19;;;;;;;22.00;12.70;;;-0.70;99.90;;;;;;5115963;28;20039;-80
2022/03/06 04:12:45;;;;;;;22.30;12.02;;;-0.80;99.90;;;;;;5098556;28;20028;-80
2022/03/06 04:15:10;;;;;;;22.35;13.23;;;-0.80;99.90;;;;;;5097665;28;20395;-80
2022/03/06 04:17:36;;;;;;;22.38;12.60;;;-0.80;99.90;;;;;;5115214;28;20045;-80
2022/03/06 04:20:03;;;;;;;22.85;13.05;;;-0.80;99.90;;;;;;5115292;28;20033;-80
2022/03/06 04:22:29;;;;;;;21.27;12.95;;;-0.80;99.90;;;;;;5116409;28;20027;-80
2022/03/06 04:24:55;;;;;;;23.33;13.68;;;-0.80;99.90;;;;;;5115272;28;20034;-80
2022/03/06 04:27:20;;;;;;;22.00;13.38;;;-0.80;99.90;;;;;;5115283;28;20379;-80
2022/03/06 04:29:46;;;;;;;18.83;12.18;;;-0.80;99.90;;;;;;5115444;28;20384;-80
2022/03/06 04:32:12;;;;;;;20.45;13.57;;;-0.90;99.90;;;;;;5098097;28;20457;-80
2022/03/06 04:34:38;;;;;;;22.73;12.32;;;-0.80;99.90;;;;;;5098053;28;20032;-80
2022/03/06 04:37:04;;;;;;;22.30;13.07;;;-0.80;99.90;;;;;;5115444;28;20081;-80
2022/03/06 04:39:30;;;;;;;21.83;12.70;;;-0.80;99.90;;;;;;5115814;28;20439;-79
2022/03/06 04:41:55;;;;;;;19.92;12.40;;;-0.80;99.90;;;;;;5115063;28;20111;-80
2022/03/06 04:44:21;;;;;;;22.20;12.75;;;-0.70;99.90;;;;;;5097852;28;20118;-80
2022/03/06 04:46:47;;;;;;;21.10;12.23;;;-0.80;99.90;;;;;;5115654;28;20065;-80
2022/03/06 04:49:13;;;;;;;18.80;12.50;;;-0.80;99.90;;;;;;5115920;28;20357;-81
2022/03/06 04:51:39;;;;;;;24.17;12.82;;;-0.70;99.90;;;;;;5116404;28;20027;-80
2022/03/06 04:54:05;;;;;;;20.13;12.40;;;-0.70;99.90;;;;;;5114670;28;20360;-81
2022/03/06 04:56:31;;;;;;;19.58;11.93;;;-0.70;99.90;;;;;;5114824;28;20074;-81
2022/03/06 04:58:57;;;;;;;21.33;12.73;;;-0.80;99.90;;;;;;5097348;28;20051;-81
2022/03/06 05:01:22;;;;;;;20.88;12.30;;;-0.70;99.90;;;;;;5115798;28;20028;-81
2022/03/06 05:03:48;;;;;;;19.48;12.52;;;-0.80;99.90;;;;;;5115526;28;20024;-81
2022/03/06 05:06:14;;;;;;;20.85;11.57;;;-0.80;99.90;;;;;;5114824;28;20031;-82
2022/03/06 05:08:40;;;;;;;18.50;11.30;;;-0.80;99.90;;;;;;5115637;28;20383;-81
2022/03/06 05:11:05;;;;;;;17.25;10.90;;;-0.80;99.90;;;;;;5114298;28;20494;-82
2022/03/06 05:13:31;;;;;;;18.88;10.80;;;-0.80;99.90;;;;;;5097260;28;20046;-81
2022/03/06 05:15:57;;;;;;;15.52;9.95;;;-0.70;99.90;;;;;;5114096;28;20031;-81
2022/03/06 05:18:22;;;;;;;18.40;10.65;;;-0.80;99.90;;;;;;5097112;28;20030;-81
2022/03/06 05:20:48;;;;;;;19.20;10.55;;;-0.70;99.90;;;;;;5114070;28;20032;-81
2022/03/06 05:23:16;;;;;;;17.52;10.60;;;-0.70;99.90;;;;;;5097189;28;20023;-81
2022/03/06 05:25:41;;;;;;;16.00;9.65;;;-0.70;99.90;;;;;;5114643;28;20103;-81
2022/03/06 05:28:07;;;;;;;15.30;9.68;;;-0.70;99.90;;;;;;5115757;28;20058;-81
2022/03/06 05:30:36;;;;;;;14.75;9.40;;;-0.70;99.90;;;;;;5114158;28;20073;-81
2022/03/06 05:33:02;;;;;;;14.98;8.85;;;-0.80;99.90;;;;;;5114543;28;20024;-81
2022/03/06 05:35:27;;;;;;;16.65;9.55;;;-0.70;99.90;;;;;;5113648;28;20050;-81
2022/03/06 05:37:53;;;;;;;14.38;9.23;;;-0.80;99.90;;;;;;5114979;28;20399;-81
2022/03/06 05:40:19;;;;;;;16.90;9.20;;;-0.80;99.90;;;;;;5113927;28;20051;-81
2022/03/06 05:42:45;;;;;;;15.93;9.40;;;-0.80;99.90;;;;;;5114954;28;20027;-81
2022/03/06 05:45:13;;;;;;;15.23;8.77;;;-0.80;99.90;;;;;;5114661;28;20364;-81
2022/03/06 05:47:39;;;;;;;15.73;8.85;;;-0.80;99.90;;;;;;5114975;28;20031;-81
2022/03/06 05:50:07;;;;;;;17.05;8.65;;;-0.80;99.90;;;;;;5114843;28;20081;-82
2022/03/06 05:52:33;;;;;;;17.73;8.10;;;-0.80;99.90;;;;;;5113469;28;20020;-82
2022/03/06 05:54:58;;;;;;;15.10;8.80;;;-0.80;99.90;;;;;;5113718;28;20051;-82
2022/03/06 05:57:24;;;;;;;16.45;8.13;;;-0.90;99.90;;;;;;5115211;28;20063;-81
2022/03/06 05:59:50;;;;;;;14.18;8.13;;;-0.80;99.90;;;;;;5114820;28;20047;-81
2022/03/06 06:02:16;;;;;;;15.27;8.60;;;-0.80;99.90;;;;;;5113165;28;20372;-81
2022/03/06 06:04:42;;;;;;;17.63;8.02;;;-0.90;99.90;;;;;;5095863;28;20034;-81
2022/03/06 06:07:09;;;;;;;15.30;8.15;;;-0.90;99.90;;;;;;5113306;28;20032;-81
2022/03/06 06:09:35;;;;;;;17.88;8.20;;;-0.90;99.90;;;;;;5113071;28;20023;-82
2022/03/06 06:12:00;;;;;;;15.13;8.20;;;-0.90;99.90;;;;;;5113633;28;20034;-81
2022/03/06 06:14:26;;;;;;;13.10;7.40;;;-0.90;99.90;;;;;;5114219;28;20129;-81
2022/03/06 06:16:52;;;;;;;13.30;8.18;;;-0.90;99.90;;;;;;5112784;28;20036;-81
2022/03/06 06:19:17;;;;;;;12.88;7.20;;;-0.90;99.90;;;;;;5096431;28;20032;-81
2022/03/06 06:21:43;;;;;;;15.63;7.88;;;-0.90;99.90;;;;;;5113363;28;20027;-81
2022/03/06 06:24:13;;;;;;;14.63;7.78;;;-0.90;99.90;;;;;;5079998;28;20024;-82
2022/03/06 06:26:40;;;;;;;13.77;7.78;;;-0.80;99.90;;;;;;5113032;28;20028;-81
2022/03/06 06:29:06;;;;;;;13.63;7.07;;;-0.80;99.90;;;;;;5096949;28;20341;-82
2022/03/06 06:31:32;;;;;;;14.10;7.07;;;-0.80;99.90;;;;;;5095886;28;20028;-82
2022/03/06 06:33:58;;;;;;;12.90;7.15;;;-0.80;99.90;;;;;;5112402;28;20016;-81
2022/03/06 06:36:23;;;;;;;15.82;7.65;;;-0.70;99.90;;;;;;5112306;28;20384;-82
2022/03/06 06:38:49;;;;;;;15.35;7.85;;;-0.70;99.90;;;;;;5114109;28;20035;-81
2022/03/06 06:41:15;;;;;;;13.63;6.88;;;-0.60;99.90;;;;;;5112705;28;20031;-81
2022/03/06 06:43:42;;;;;;;11.60;6.93;;;-0.50;99.90;;;;;;5112618;28;20118;-81
2022/03/06 06:46:08;;;;;;;14.77;7.18;;;-0.50;99.90;;;;;;5112709;28;20118;-81
2022/03/06 06:48:34;;;;;;;13.27;6.85;;;-0.40;99.90;;;;;;5113588;28;20111;-81
2022/03/06 06:51:00;;;;;;;13.50;6.82;;;-0.30;99.90;;;;;;5112645;28;20117;-81
2022/03/06 06:53:26;;;;;;;13.73;7.00;;;-0.20;99.90;;;;;;5114137;28;20042;-81
2022/03/06 06:55:51;;;;;;;12.38;6.90;;;-0.20;99.90;;;;;;5112721;28;20034;-81
2022/03/06 06:58:17;;;;;;;15.65;6.75;;;-0.10;99.90;;;;;;5113852;28;20043;-81
2022/03/06 07:00:43;;;;;;;15.70;6.78;;;-0.10;99.90;;;;;;5113908;28;20028;-81
2022/03/06 07:03:09;;;;;;;11.23;6.35;;;0.00;99.90;;;;;;5113817;28;20055;-81
2022/03/06 07:05:35;;;;;;;14.80;6.95;;;0.00;99.90;;;;;;5112588;28;20500;-81
2022/03/06 07:08:00;;;;;;;15.02;6.38;;;0.10;99.90;;;;;;5113855;28;20406;-82
2022/03/06 07:10:26;;;;;;;13.90;6.38;;;0.10;99.90;;;;;;5113271;28;20055;-80
2022/03/06 07:12:55;;;;;;;12.23;6.13;;;0.20;99.90;;;;;;5114339;28;20035;-81
2022/03/06 07:15:27;;;;;;;11.90;6.10;;;0.30;99.90;;;;;;5113475;28;20067;-81
2022/03/06 07:17:57;;;;;;;11.95;6.50;;;0.30;99.90;;;;;;5113999;28;20015;-81
2022/03/06 07:20:23;;;;;;;13.50;6.43;;;0.30;99.90;;;;;;5113838;28;20020;-81
2022/03/06 07:22:49;;;;;;;12.45;6.22;;;0.40;99.90;;;;;;5113800;28;20432;-81
2022/03/06 07:25:15;;;;;;;12.23;6.38;;;0.40;99.90;;;;;;5112815;28;20098;-82
2022/03/06 07:27:40;;;;;;;12.60;5.97;;;0.40;99.90;;;;;;5114247;28;20028;-82
2022/03/06 07:30:06;;;;;;;11.35;5.80;;;0.50;99.90;;;;;;5095763;28;20100;-81
2022/03/06 07:32:32;;;;;;;10.85;6.38;;;0.50;99.90;;;;;;5095407;28;20083;-82
2022/03/06 07:34:58;;;;;;;13.45;5.90;;;0.60;99.90;;;;;;5094905;28;20391;-81
2022/03/06 07:37:23;;;;;;;13.35;6.20;;;0.60;99.90;;;;;;5112324;28;20030;-82
2022/03/06 07:39:49;;;;;;;10.57;5.78;;;0.60;99.90;;;;;;5113744;28;20115;-81
2022/03/06 07:42:15;;;;;;;12.00;5.82;;;0.60;99.90;;;;;;5095544;28;20466;-81
2022/03/06 07:44:41;;;;;;;11.77;5.85;;;0.60;99.90;;;;;;5113073;28;20050;-79
2022/03/06 07:47:07;;;;;;;12.75;5.40;;;0.60;99.90;;;;;;5111869;28;20023;-82
2022/03/06 07:49:33;;;;;;;12.52;5.25;;;0.60;99.90;;;;;;5115449;28;20020;-81
2022/03/06 07:51:58;;;;;;;11.07;5.25;;;0.60;99.90;;;;;;5117035;28;20031;-81
2022/03/06 07:54:24;;;;;;;13.02;6.03;;;0.70;99.90;;;;;;5116174;28;20020;-82
2022/03/06 07:56:50;;;;;;;11.07;5.53;;;0.80;99.90;;;;;;5098958;28;20122;-81
2022/03/06 07:59:15;;;;;;;11.43;5.68;;;0.80;99.90;;;;;;5098852;28;20451;-81
2022/03/06 08:01:41;;;;;;;10.25;5.28;;;0.80;99.90;;;;;;5099008;28;20024;-82
2022/03/06 08:04:07;;;;;;;10.35;4.90;;;0.90;99.90;;;;;;5082075;28;20123;-80
2022/03/06 08:06:32;;;;;;;10.32;4.85;;;1.00;99.90;;;;;;5116770;28;20035;-81
2022/03/06 08:08:58;;;;;;;9.40;5.07;;;1.00;99.90;;;;;;5116453;28;20081;-81
2022/03/06 08:11:24;;;;;;;9.18;4.47;;;1.10;99.90;;;;;;5098904;28;20072;-80
2022/03/06 08:13:50;;;;;;;11.13;5.13;;;1.10;99.90;;;;;;5098276;28;20062;-80
2022/03/06 08:16:16;;;;;;;10.30;4.70;;;1.10;99.90;;;;;;5115451;28;20127;-82
2022/03/06 08:18:41;;;;;;;11.40;5.68;;;1.20;99.90;;;;;;5098258;28;20114;-81
2022/03/06 08:21:07;;;;;;;12.32;6.13;;;1.20;99.90;;;;;;5116531;28;20027;-81
2022/03/06 08:23:33;;;;;;;11.10;5.57;;;1.30;99.90;;;;;;5114996;28;20024;-81
2022/03/06 08:25:59;;;;;;;12.30;6.18;;;1.40;99.90;;;;;;5081473;28;20123;-80
2022/03/06 08:28:24;;;;;;;15.95;6.50;;;1.40;99.90;;;;;;5115075;28;20199;-79
2022/03/06 08:30:50;;;;;;;10.20;4.70;;;1.50;99.90;;;;;;5115159;28;20023;-79
2022/03/06 08:33:16;;;;;;;9.68;4.70;;;1.60;99.90;;;;;;5115011;28;20035;-82
2022/03/06 08:35:41;;;;;;;11.40;4.80;;;1.60;99.90;;;;;;5115083;28;20067;-80
2022/03/06 08:38:07;;;;;;;7.68;4.30;;;1.70;99.90;;;;;;5114840;28;20047;-81
2022/03/06 08:40:32;;;;;;;7.93;4.30;;;1.70;99.90;;;;;;5115105;28;20036;-81
2022/03/06 08:43:01;;;;;;;9.15;4.10;;;1.80;99.90;;;;;;5114981;28;20042;-79
2022/03/06 08:45:26;;;;;;;10.27;4.57;;;1.90;99.90;;;;;;5098023;28;20042;-80
2022/03/06 08:47:52;;;;;;;7.72;4.18;;;2.00;99.90;;;;;;5114928;28;20028;-80
2022/03/06 08:50:25;;;;;;;8.25;3.92;;;2.10;99.90;;;;;;5115219;28;20023;-82
2022/03/06 08:52:51;;;;;;;9.15;4.10;;;2.20;99.90;;;;;;5098285;28;20024;-80
2022/03/06 08:55:16;;;;;;;8.68;4.18;;;2.30;99.90;;;;;;5097413;28;20127;-79
2022/03/06 08:57:42;;;;;;;9.07;3.72;;;2.30;99.90;;;;;;5114576;28;20078;-80
2022/03/06 09:00:08;;;;;;;8.35;3.40;;;2.60;99.90;;;;;;5097499;28;20510;-80
2022/03/06 09:02:34;;;;;;;7.95;3.83;;;3.50;99.90;;;;;;5080722;28;20023;-80
2022/03/06 09:05:00;;;;;;;9.52;3.80;;;5.00;99.90;;;;;;5098148;28;20119;-80
2022/03/06 09:07:26;;;;;;;7.95;3.60;;;6.40;99.90;;;;;;5114409;28;20027;-82
2022/03/06 09:09:51;;;;;;;7.55;3.55;;;7.70;99.90;;;;;;5114924;28;20024;-81
2022/03/06 09:12:19;;;;;;;7.35;3.90;;;8.60;91.20;;;;;;5114347;28;20103;-81
2022/03/06 09:14:45;;;;;;;6.40;3.53;;;9.70;67.50;;;;;;5097778;28;20082;-83
2022/03/06 09:17:11;;;;;;;8.95;3.35;;;10.40;59.20;;;;;;5114762;28;20035;-83
2022/03/06 09:19:37;;;;;;;7.20;3.25;;;10.70;58.10;;;;;;5097624;28;20110;-84
2022/03/06 09:22:03;;;;;;;7.68;2.97;;;11.30;55.20;;;;;;5114363;28;20421;-84
2022/03/06 09:24:30;;;;;;;6.88;3.30;;;11.20;52.20;;;;;;5113908;28;20023;-81
2022/03/06 09:26:56;;;;;;;8.57;3.60;;;11.50;52.20;;;;;;5097092;28;20490;-81
2022/03/06 09:29:22;;;;;;;8.70;3.60;;;11.50;49.20;;;;;;5113654;28;20019;-86
2022/03/06 09:31:48;;;;;;;9.02;3.42;;;10.40;48.70;;;;;;5097267;28;20032;-84
2022/03/06 09:34:13;;;;;;;6.80;3.13;;;9.70;53.50;;;;;;5096968;28;20055;-82
2022/03/06 09:36:39;;;;;;;7.07;3.50;;;8.70;55.30;;;;;;5113859;28;20039;-82
2022/03/06 09:39:05;;;;;;;8.98;3.90;;;8.60;70.00;;;;;;5113887;28;20034;-83
2022/03/06 09:41:36;;;;;;;7.55;3.63;;;7.60;63.00;;;;;;5113744;28;20028;-82
2022/03/06 09:44:06;;;;;;;7.57;3.45;;;7.30;75.10;;;;;;5114903;28;20072;-82
2022/03/06 09:46:37;;;;;;;7.95;3.75;;;7.30;94.00;;;;;;5114878;28;20106;-83
2022/03/06 09:49:04;;;;;;;7.88;3.35;;;7.20;95.50;;;;;;5114880;28;20020;-81
2022/03/06 09:51:39;;;;;;;8.90;3.35;;;6.80;79.90;;;;;;5113560;28;20031;-81
2022/03/06 09:54:09;;;;;;;9.07;3.20;;;6.60;73.50;;;;;;5115716;28;20023;-81
2022/03/06 09:56:36;;;;;;;8.68;3.20;;;6.60;70.70;;;;;;5114328;28;20044;-81
2022/03/06 09:59:02;;;;;;;8.25;3.17;;;7.50;93.30;;;;;;5096254;28;20109;-81
2022/03/06 10:01:28;;;;;;;8.32;3.58;;;8.10;62.00;;;;;;5113253;28;20121;-82
2022/03/06 10:03:54;;;;;;;8.15;3.25;;;8.90;56.80;;;;;;5097021;28;20444;-80
2022/03/06 10:06:19;;;;;;;6.93;3.22;;;10.30;56.60;;;;;;5113170;28;20034;-81
2022/03/06 10:08:45;;;;;;;7.00;3.22;;;11.00;51.20;;;;;;5096326;28;20028;-81
2022/03/06 10:11:12;;;;;;;7.53;3.00;;;12.00;51.50;;;;;;5096184;28;20055;-80
2022/03/06 10:13:42;;;;;;;9.00;3.90;;;12.70;49.40;;;;;;5113903;28;20023;-81
2022/03/06 10:16:20;;;;;;;7.63;2.95;;;13.30;46.40;;;;;;5096219;28;20028;-84
2022/03/06 10:18:49;;;;;;;7.43;3.40;;;14.20;46.20;;;;;;5112521;28;20027;-83
2022/03/06 10:21:33;;;;;;;6.88;3.20;;;13.80;42.10;;;;;;5114510;28;20055;-83
2022/03/06 10:24:01;;;;;;;7.45;2.90;;;14.60;44.80;;;;;;5114727;28;20046;-83
2022/03/06 10:26:29;;;;;;;7.43;3.58;;;14.60;44.00;;;;;;5114139;28;20054;-80
2022/03/06 10:29:01;;;;;;;7.97;3.35;;;14.80;40.90;;;;;;5114677;28;20028;-86
2022/03/06 10:31:29;;;;;;;7.13;3.20;;;14.20;41.60;;;;;;5116083;28;20035;-79
2022/03/06 10:33:58;;;;;;;9.02;3.90;;;13.90;42.20;;;;;;5115735;28;20026;-82
2022/03/06 10:36:45;;;;;;;7.22;3.20;;;14.20;41.70;;;;;;5115999;28;20504;-79
2022/03/06 10:39:19;;;;;;;7.50;2.95;;;13.90;42.20;;;;;;5115937;28;20098;-80
2022/03/06 10:41:50;;;;;;;7.30;2.90;;;14.20;41.80;;;;;;5114386;28;20115;-80
2022/03/06 10:44:18;;;;;;;6.30;2.90;;;13.70;40.80;;;;;;5113423;28;20516;-84
2022/03/06 10:47:04;;;;;;;8.90;3.10;;;14.00;40.10;;;;;;5114447;28;20527;-81
2022/03/06 10:49:32;;;;;;;6.97;3.10;;;13.90;40.30;;;;;;5096419;28;20427;-81
2022/03/06 10:52:15;;;;;;;6.35;2.90;;;14.30;40.70;;;;;;5113715;28;20333;-82
2022/03/06 10:55:08;;;;;;;7.57;3.08;;;14.00;39.50;;;;;;5112602;28;20019;-81
2022/03/06 10:57:33;;;;;;;7.45;2.88;;;14.80;40.60;;;;;;5111205;28;20082;-81
2022/03/06 11:00:00;;;;;;;7.55;2.80;;;14.70;40.50;;;;;;5095388;28;20083;-83
2022/03/06 11:02:27;;;;;;;6.28;2.67;;;14.50;38.60;;;;;;5095421;28;20035;-81
2022/03/06 11:04:56;;;;;;;5.90;3.13;;;14.90;39.20;;;;;;5112806;28;20030;-79
2022/03/06 11:07:25;;;;;;;8.43;3.10;;;14.00;38.50;;;;;;5112486;28;20032;-80
2022/03/06 11:09:53;;;;;;;6.30;2.75;;;14.80;39.50;;;;;;5112260;28;20040;-79
2022/03/06 11:12:20;;;;;;;7.78;2.95;;;14.20;37.50;;;;;;5112547;28;20027;-80
2022/03/06 11:14:47;;;;;;;8.38;3.10;;;15.10;39.80;;;;;;5112631;28;20074;-78
2022/03/06 11:17:13;;;;;;;6.97;2.88;;;15.50;38.20;;;;;;5113876;28;20028;-79
2022/03/06 11:19:39;;;;;;;6.18;3.00;;;15.90;39.30;;;;;;5112336;28;20050;-79
2022/03/06 11:22:19;;;;;;;5.95;2.72;;;15.30;36.60;;;;;;5096280;28;20028;-80
2022/03/06 11:24:52;;;;;;;8.75;3.20;;;15.80;36.70;;;;;;5115039;28;20020;-80
2022/03/06 11:27:26;;;;;;;6.70;2.65;;;14.70;35.50;;;;;;5116567;28;20024;-81
2022/03/06 11:30:04;;;;;;;6.03;2.50;;;15.60;37.20;;;;;;5118065;28;20020;-80
2022/03/06 11:32:33;;;;;;;7.15;2.75;;;15.40;38.00;;;;;;5118278;28;20020;-81
2022/03/06 11:35:09;;;;;;;7.90;3.22;;;16.00;38.80;;;;;;5117672;28;20460;-80
2022/03/06 11:37:55;;;;;;;7.38;3.00;;;16.00;37.60;;;;;;5118130;28;20039;-81
2022/03/06 11:40:50;;;;;;;8.13;2.90;;;16.30;39.10;;;;;;5116354;28;20436;-84
2022/03/06 11:43:31;;;;;;;8.63;3.15;;;16.60;37.90;;;;;;5118112;28;20032;-84
2022/03/06 11:46:14;;;;;;;7.45;2.88;;;16.60;37.50;;;;;;5115819;28;20135;-82
2022/03/06 11:48:40;;;;;;;8.43;3.30;;;16.70;38.40;;;;;;5117809;28;20020;-82
2022/03/06 11:51:14;;;;;;;7.95;3.28;;;17.10;37.60;;;;;;5116744;28;20088;-83
2022/03/06 11:53:51;;;;;;;8.95;3.60;;;15.70;35.80;;;;;;5117147;28;20028;-83
2022/03/06 11:56:35;;;;;;;7.95;3.33;;;16.60;38.30;;;;;;5115675;28;20035;-85
2022/03/06 11:59:07;;;;;;;6.78;3.05;;;16.40;38.60;;;;;;5117214;28;20042;-85
2022/03/06 12:01:34;;;;;;;8.13;3.13;;;15.70;37.80;;;;;;5116495;28;20110;-82
2022/03/06 12:04:13;;;;;;;7.38;3.10;;;15.80;38.10;;;;;;5116409;28;20041;-82
2022/03/06 12:06:47;;;;;;;8.10;3.38;;;16.60;37.70;;;;;;5116460;28;20032;-80
2022/03/06 12:09:24;;;;;;;7.18;3.15;;;16.30;37.00;;;;;;5116601;28;20024;-81
2022/03/06 12:11:52;;;;;;;7.03;3.20;;;16.80;37.40;;;;;;5116804;28;20452;-81
2022/03/06 12:14:38;;;;;;;9.98;3.47;;;17.10;37.00;;;;;;5117872;28;20030;-83
2022/03/06 12:17:04;;;;;;;7.55;3.20;;;16.60;36.70;;;;;;5116629;28;20114;-81
2022/03/06 12:19:54;;;;;;;6.20;3.03;;;16.60;35.80;;;;;;5116304;28;20063;-82
2022/03/06 12:22:33;;;;;;;7.93;2.90;;;16.60;36.80;;;;;;5105204;28;20364;-82
2022/03/06 12:25:08;;;;;;;6.35;3.15;;;16.10;37.10;;;;;;5116697;28;20032;-81
2022/03/06 12:27:36;;;;;;;6.40;2.92;;;16.20;38.30;;;;;;5115579;28;20040;-80
2022/03/06 12:30:06;;;;;;;8.63;2.83;;;15.90;38.40;;;;;;5116708;28;20432;-79
2022/03/06 12:32:33;;;;;;;6.82;3.20;;;15.20;37.50;;;;;;5116705;28;20073;-80
2022/03/06 12:35:05;;;;;;;8.05;3.60;;;15.00;39.30;;;;;;5115672;28;20038;-80
2022/03/06 12:37:38;;;;;;;7.35;3.40;;;14.90;39.70;;;;;;5115102;28;20063;-80
2022/03/06 12:40:08;;;;;;;7.85;3.55;;;15.30;38.40;;;;;;5116399;28;20107;-80
2022/03/06 12:42:36;;;;;;;6.68;3.20;;;14.50;39.20;;;;;;5115224;28;20026;-79